Time;durP1;ratioP1;P1;durP2;ratioP2;P2;SDS_P1;SDS_P2;PMS_P1;PMS_P2;Temp;Humidity;BMP_temperature;BMP_pressure;BME280_temperature;BME280_humidity;BME280_pressure;Samples;Min_cycle;Max_cycle;Signal;HPM_P1;HPM_P2
2024/01/05 00:01:39;;;;;;;7.33;4.20;;;2.30;99.90;;;;;;5075666;28;20080;-47
2024/01/05 00:04:04;;;;;;;8.27;3.97;;;2.40;99.90;;;;;;5075223;28;20400;-48
2024/01/05 00:06:30;;;;;;;8.85;3.38;;;2.30;99.90;;;;;;5057570;28;20139;-47
2024/01/05 00:08:56;;;;;;;8.57;4.00;;;2.30;99.90;;;;;;5075053;28;20434;-48
2024/01/05 00:11:22;;;;;;;8.73;3.80;;;2.40;99.90;;;;;;5075173;28;20048;-48
2024/01/05 00:13:48;;;;;;;9.70;4.33;;;2.30;99.90;;;;;;5075151;28;20063;-47
2024/01/05 00:16:21;;;;;;;7.72;3.88;;;2.30;99.90;;;;;;5073777;28;20135;-47
2024/01/05 00:18:48;;;;;;;9.40;3.85;;;2.30;99.90;;;;;;5074126;28;20055;-47
2024/01/05 00:21:27;;;;;;;8.65;3.15;;;2.30;99.90;;;;;;5074843;28;20051;-47
2024/01/05 00:23:55;;;;;;;8.40;3.38;;;2.30;99.90;;;;;;5074903;28;20123;-47
2024/01/05 00:26:21;;;;;;;7.15;3.53;;;2.30;99.90;;;;;;5073232;28;20048;-46
2024/01/05 00:28:48;;;;;;;7.63;3.40;;;2.30;99.90;;;;;;5074688;28;20140;-47
2024/01/05 00:31:15;;;;;;;8.18;3.58;;;2.30;99.90;;;;;;5074646;28;20056;-47
2024/01/05 00:33:41;;;;;;;7.88;3.53;;;2.30;99.90;;;;;;5074522;28;20052;-46
2024/01/05 00:36:08;;;;;;;7.97;3.72;;;2.30;99.90;;;;;;5074544;28;20127;-47
2024/01/05 00:38:35;;;;;;;7.38;3.35;;;2.30;99.90;;;;;;5074591;28;20044;-47
2024/01/05 00:41:01;;;;;;;8.52;3.75;;;2.20;99.90;;;;;;5073689;28;20175;-46
2024/01/05 00:43:27;;;;;;;8.67;3.87;;;2.20;99.90;;;;;;5074658;28;20446;-47
2024/01/05 00:45:54;;;;;;;9.27;4.03;;;2.20;99.90;;;;;;5074367;28;20131;-47
2024/01/05 00:48:20;;;;;;;7.95;3.40;;;2.20;99.90;;;;;;5073048;28;20161;-48
2024/01/05 00:50:45;;;;;;;8.93;3.73;;;2.20;99.90;;;;;;5074177;28;20095;-47
2024/01/05 00:53:11;;;;;;;10.87;3.97;;;2.20;99.90;;;;;;5074362;28;20036;-47
2024/01/05 00:55:37;;;;;;;8.60;3.67;;;2.20;99.90;;;;;;5074094;28;20055;-47
2024/01/05 00:58:03;;;;;;;9.10;4.27;;;2.20;99.90;;;;;;5074395;28;20032;-47
2024/01/05 01:00:29;;;;;;;9.18;3.30;;;2.10;99.90;;;;;;5074392;28;20110;-47
2024/01/05 01:02:54;;;;;;;9.27;4.53;;;2.20;99.90;;;;;;5072864;28;20049;-47
2024/01/05 01:05:21;;;;;;;9.82;4.78;;;2.10;99.90;;;;;;5074056;28;20499;-47
2024/01/05 01:07:47;;;;;;;11.50;5.10;;;2.10;99.90;;;;;;5073798;28;20052;-47
2024/01/05 01:10:13;;;;;;;8.98;4.43;;;2.10;99.90;;;;;;5074047;28;20090;-47
2024/01/05 01:12:39;;;;;;;8.55;4.65;;;2.10;99.90;;;;;;5074096;28;20048;-46
2024/01/05 01:15:05;;;;;;;9.87;5.00;;;2.10;99.90;;;;;;5074065;28;20507;-48
2024/01/05 01:17:31;;;;;;;10.43;4.90;;;2.10;99.90;;;;;;5073896;28;20041;-47
2024/01/05 01:19:57;;;;;;;12.20;4.50;;;2.10;99.90;;;;;;5073824;28;20669;-47
2024/01/05 01:22:22;;;;;;;10.03;4.70;;;2.00;99.90;;;;;;5074175;28;20052;-49
2024/01/05 01:24:48;;;;;;;9.63;4.85;;;2.10;99.90;;;;;;5073828;28;20127;-46
2024/01/05 01:27:15;;;;;;;9.48;4.38;;;2.00;99.90;;;;;;5073661;28;20456;-49
2024/01/05 01:29:41;;;;;;;;;;;2.00;99.90;;;;;;5074274;28;20377;-48
2024/01/05 01:32:09;;;;;;;9.63;4.50;;;2.00;99.90;;;;;;5072717;28;19920;-51
2024/01/05 01:34:41;;;;;;;12.80;4.50;;;2.10;99.90;;;;;;5073419;28;20135;-50
2024/01/05 01:37:06;;;;;;;11.35;4.75;;;2.00;99.90;;;;;;5073330;28;20048;-49
2024/01/05 01:39:32;;;;;;;12.57;5.18;;;2.00;99.90;;;;;;5073364;28;20052;-48
2024/01/05 01:41:58;;;;;;;10.68;4.85;;;2.10;99.90;;;;;;5072756;28;20055;-50
2024/01/05 01:44:24;;;;;;;11.30;4.43;;;2.00;99.90;;;;;;5073703;28;20048;-47
2024/01/05 01:46:51;;;;;;;10.70;5.17;;;2.00;99.90;;;;;;5073364;28;20070;-51
2024/01/05 01:49:17;;;;;;;12.20;5.03;;;2.00;99.90;;;;;;5073597;28;20095;-50
2024/01/05 01:51:43;;;;;;;12.23;5.32;;;2.00;99.90;;;;;;5073526;28;20080;-49
2024/01/05 01:54:10;;;;;;;10.75;4.75;;;2.10;99.90;;;;;;5073576;28;20098;-48
2024/01/05 01:56:36;;;;;;;12.38;4.55;;;2.00;99.90;;;;;;5073568;28;20088;-51
2024/01/05 01:59:03;;;;;;;11.27;4.57;;;2.00;99.90;;;;;;5073542;28;20079;-48
2024/01/05 02:01:29;;;;;;;11.25;5.00;;;2.00;99.90;;;;;;5073487;28;20053;-49
2024/01/05 02:03:55;;;;;;;10.23;4.57;;;2.00;99.90;;;;;;5073543;28;20082;-50
2024/01/05 02:06:20;;;;;;;11.75;5.40;;;2.00;99.90;;;;;;5073465;28;20128;-46
2024/01/05 02:08:50;;;;;;;10.10;4.63;;;2.00;99.90;;;;;;5071719;28;20061;-46
2024/01/05 02:11:16;;;;;;;11.68;5.32;;;2.00;99.90;;;;;;5073098;28;20522;-46
2024/01/05 02:13:43;;;;;;;11.32;4.78;;;2.10;99.90;;;;;;5073326;28;20048;-47
2024/01/05 02:16:09;;;;;;;10.23;4.68;;;2.10;99.90;;;;;;5073075;28;20102;-47
2024/01/05 02:18:35;;;;;;;12.83;5.37;;;2.00;99.90;;;;;;5073373;28;20051;-47
2024/01/05 02:21:03;;;;;;;10.60;4.50;;;2.00;99.90;;;;;;5073395;28;20399;-47
2024/01/05 02:23:30;;;;;;;13.35;5.15;;;2.00;99.90;;;;;;5073263;28;20048;-47
2024/01/05 02:25:57;;;;;;;10.13;4.88;;;2.00;99.90;;;;;;5073184;28;20086;-47
2024/01/05 02:28:23;;;;;;;;;;;2.10;99.90;;;;;;5073480;28;20526;-47
2024/01/05 02:30:49;;;;;;;11.27;4.72;;;2.10;99.90;;;;;;5072982;28;19920;-46
2024/01/05 02:33:15;;;;;;;9.77;4.87;;;2.10;99.90;;;;;;5073180;28;20044;-46
2024/01/05 02:35:41;;;;;;;11.70;4.97;;;2.10;99.90;;;;;;5073193;28;20048;-46
2024/01/05 02:38:07;;;;;;;10.13;4.83;;;2.10;99.90;;;;;;5073168;28;20051;-46
2024/01/05 02:40:33;;;;;;;13.25;4.57;;;2.00;99.90;;;;;;5072964;28;20399;-47
2024/01/05 02:42:59;;;;;;;10.18;4.25;;;2.10;99.90;;;;;;5072936;28;20131;-46
2024/01/05 02:45:25;;;;;;;11.77;4.87;;;2.10;99.90;;;;;;5072774;28;20144;-46
2024/01/05 02:47:51;;;;;;;10.80;4.50;;;2.10;99.90;;;;;;5071825;28;20060;-47
2024/01/05 02:50:17;;;;;;;12.02;4.95;;;2.00;99.90;;;;;;5075819;28;20048;-46
2024/01/05 02:52:43;;;;;;;12.98;4.82;;;2.00;99.90;;;;;;5076596;28;20041;-47
2024/01/05 02:55:10;;;;;;;13.07;4.78;;;2.00;99.90;;;;;;5076843;28;20044;-46
2024/01/05 02:57:36;;;;;;;;;;;2.00;99.90;;;;;;5077022;28;20044;-46
2024/01/05 03:00:03;;;;;;;12.65;4.80;;;2.00;99.90;;;;;;5076420;28;20055;-47
2024/01/05 03:02:29;;;;;;;12.52;5.22;;;2.00;99.90;;;;;;5076577;28;20049;-47
2024/01/05 03:04:54;;;;;;;11.55;4.53;;;2.00;99.90;;;;;;5076467;28;20040;-46
2024/01/05 03:07:20;;;;;;;11.57;5.13;;;2.00;99.90;;;;;;5076377;28;20169;-47
2024/01/05 03:09:46;;;;;;;11.55;4.50;;;2.00;99.90;;;;;;5076303;28;20385;-46
2024/01/05 03:12:12;;;;;;;13.88;5.10;;;2.00;99.90;;;;;;5076260;28;20041;-46
2024/01/05 03:14:37;;;;;;;11.73;5.30;;;2.00;99.90;;;;;;5076232;28;20482;-47
2024/01/05 03:17:03;;;;;;;13.35;4.90;;;1.90;99.90;;;;;;5076205;28;20389;-47
2024/01/05 03:19:29;;;;;;;10.17;4.90;;;1.90;99.90;;;;;;5076185;28;20045;-47
2024/01/05 03:21:55;;;;;;;15.03;5.57;;;2.00;99.90;;;;;;5076394;28;20040;-47
2024/01/05 03:24:20;;;;;;;10.63;4.07;;;1.90;99.90;;;;;;5076045;28;20052;-46
2024/01/05 03:26:46;;;;;;;10.13;4.07;;;1.90;99.90;;;;;;5075898;28;20289;-47
2024/01/05 03:29:12;;;;;;;9.57;4.30;;;1.90;99.90;;;;;;5091335;28;20139;-46
2024/01/05 03:31:38;;;;;;;12.50;5.15;;;1.90;99.90;;;;;;5075877;28;20048;-46
2024/01/05 03:34:04;;;;;;;10.93;4.90;;;1.90;99.90;;;;;;5075926;28;20056;-46
2024/01/05 03:36:29;;;;;;;15.20;5.50;;;1.90;99.90;;;;;;5075835;28;20060;-47
2024/01/05 03:38:55;;;;;;;11.88;4.78;;;1.80;99.90;;;;;;5075780;28;20037;-46
2024/01/05 03:41:21;;;;;;;13.10;4.53;;;1.90;99.90;;;;;;5075614;28;20464;-47
2024/01/05 03:43:48;;;;;;;11.73;4.63;;;1.90;99.90;;;;;;5075516;28;20484;-47
2024/01/05 03:46:13;;;;;;;10.70;5.00;;;1.90;99.90;;;;;;5074830;28;20056;-47
2024/01/05 03:48:39;;;;;;;12.20;5.47;;;1.90;99.90;;;;;;5075526;28;20045;-47
2024/01/05 03:51:05;;;;;;;11.57;5.35;;;1.90;99.90;;;;;;5074568;28;20373;-48
2024/01/05 03:53:31;;;;;;;12.95;5.15;;;1.90;99.90;;;;;;5075718;28;20369;-47
2024/01/05 03:56:00;;;;;;;12.05;5.00;;;1.90;99.90;;;;;;5075394;28;20041;-46
2024/01/05 03:58:27;;;;;;;12.90;5.82;;;1.90;99.90;;;;;;5091200;28;20201;-46
2024/01/05 04:00:53;;;;;;;11.15;5.25;;;1.90;99.90;;;;;;5074389;28;20056;-48
2024/01/05 04:03:18;;;;;;;9.65;4.72;;;1.90;99.90;;;;;;5075173;28;20048;-47
2024/01/05 04:05:44;;;;;;;10.98;4.50;;;1.90;99.90;;;;;;5075327;28;20040;-47
2024/01/05 04:08:10;;;;;;;9.75;4.20;;;1.90;99.90;;;;;;5074805;28;20475;-47
2024/01/05 04:10:36;;;;;;;14.60;5.30;;;1.90;99.90;;;;;;5091006;28;20525;-47
2024/01/05 04:13:03;;;;;;;10.27;4.88;;;1.90;99.90;;;;;;5074016;28;20084;-47
2024/01/05 04:15:30;;;;;;;10.93;4.93;;;1.90;99.90;;;;;;5074408;28;20147;-50
2024/01/05 04:17:56;;;;;;;10.93;4.75;;;2.00;99.90;;;;;;5075026;28;20056;-50
2024/01/05 04:20:22;;;;;;;13.80;4.97;;;1.90;99.90;;;;;;5075002;28;20408;-52
2024/01/05 04:22:48;;;;;;;13.67;5.13;;;1.90;99.90;;;;;;5075092;28;20098;-50
2024/01/05 04:25:13;;;;;;;12.15;5.63;;;1.90;99.90;;;;;;5074943;28;20090;-51
2024/01/05 04:27:39;;;;;;;12.80;5.37;;;1.90;99.90;;;;;;5074690;28;20047;-47
2024/01/05 04:30:05;;;;;;;10.32;5.40;;;1.90;99.90;;;;;;5074861;28;20128;-49
2024/01/05 04:32:31;;;;;;;10.82;4.60;;;2.00;99.90;;;;;;5074718;28;20056;-50
2024/01/05 04:34:57;;;;;;;12.38;5.18;;;1.90;99.90;;;;;;5074541;28;20090;-48
2024/01/05 04:37:22;;;;;;;12.07;4.97;;;2.00;99.90;;;;;;5073670;28;20048;-48
2024/01/05 04:39:49;;;;;;;11.15;4.57;;;2.00;99.90;;;;;;5074370;28;20041;-48
2024/01/05 04:42:14;;;;;;;11.77;5.07;;;2.00;99.90;;;;;;5074388;28;20044;-50
2024/01/05 04:44:40;;;;;;;10.45;4.65;;;2.00;99.90;;;;;;5074502;28;20066;-48
2024/01/05 04:47:06;;;;;;;10.95;4.88;;;2.00;99.90;;;;;;5073551;28;20119;-46
2024/01/05 04:49:33;;;;;;;11.77;4.47;;;2.00;99.90;;;;;;5074302;28;20044;-47
2024/01/05 04:51:59;;;;;;;12.68;5.50;;;2.00;99.90;;;;;;5073087;28;20399;-48
2024/01/05 04:54:25;;;;;;;11.77;4.95;;;2.10;99.90;;;;;;5074181;28;20044;-47
2024/01/05 04:56:51;;;;;;;11.68;5.22;;;2.00;99.90;;;;;;5074069;28;20056;-46
2024/01/05 04:59:17;;;;;;;12.48;4.55;;;2.00;99.90;;;;;;5074262;28;20052;-47
2024/01/05 05:01:42;;;;;;;11.43;5.25;;;2.00;99.90;;;;;;5074321;28;20049;-46
2024/01/05 05:04:08;;;;;;;10.30;4.70;;;2.00;99.90;;;;;;5074205;28;20041;-46
2024/01/05 05:06:34;;;;;;;13.50;4.90;;;2.10;99.90;;;;;;5073911;28;20044;-46
2024/01/05 05:08:59;;;;;;;11.73;4.72;;;2.00;99.90;;;;;;5073961;28;20056;-46
2024/01/05 05:11:25;;;;;;;12.35;5.20;;;2.00;99.90;;;;;;5073702;28;20052;-46
2024/01/05 05:13:51;;;;;;;13.93;5.63;;;2.00;99.90;;;;;;5074054;28;20076;-46
2024/01/05 05:16:16;;;;;;;12.20;5.10;;;2.00;99.90;;;;;;5073939;28;20045;-48
2024/01/05 05:18:42;;;;;;;11.43;4.80;;;2.00;99.90;;;;;;5073914;28;20047;-46
2024/01/05 05:21:08;;;;;;;11.80;5.50;;;2.10;99.90;;;;;;5073941;28;20045;-46
2024/01/05 05:23:33;;;;;;;11.65;4.45;;;2.00;99.90;;;;;;5073861;28;20054;-46
2024/01/05 05:25:59;;;;;;;12.07;4.57;;;2.00;99.90;;;;;;5073583;28;20190;-46
2024/01/05 05:28:25;;;;;;;13.77;4.80;;;2.00;99.90;;;;;;5074622;28;20037;-46
2024/01/05 05:30:50;;;;;;;10.95;4.60;;;2.00;99.90;;;;;;5072833;28;20426;-47
2024/01/05 05:33:16;;;;;;;9.80;3.88;;;2.00;99.90;;;;;;5073763;28;20495;-46
2024/01/05 05:35:42;;;;;;;8.85;4.20;;;2.00;99.90;;;;;;5073715;28;20388;-46
2024/01/05 05:38:07;;;;;;;10.27;5.15;;;2.10;99.90;;;;;;5073614;28;20043;-47
2024/01/05 05:40:33;;;;;;;12.48;4.93;;;2.10;99.90;;;;;;5073434;28;20129;-47
2024/01/05 05:42:59;;;;;;;9.57;4.22;;;2.10;99.90;;;;;;5073690;28;20045;-46
2024/01/05 05:45:24;;;;;;;11.73;4.70;;;2.10;99.90;;;;;;5073649;28;20048;-45
2024/01/05 05:47:51;;;;;;;11.30;5.10;;;2.10;99.90;;;;;;5073388;28;20044;-46
2024/01/05 05:50:17;;;;;;;11.38;4.70;;;2.10;99.90;;;;;;5073454;28;20423;-46
2024/01/05 05:52:43;;;;;;;11.18;4.95;;;2.10;99.90;;;;;;5072740;28;20049;-46
2024/01/05 05:55:12;;;;;;;10.90;4.70;;;2.10;99.90;;;;;;5072407;28;20067;-46
2024/01/05 05:57:40;;;;;;;10.32;4.57;;;2.20;99.90;;;;;;5073521;28;20056;-47
2024/01/05 06:00:06;;;;;;;12.48;4.65;;;2.10;99.90;;;;;;5072272;28;20055;-47
2024/01/05 06:02:32;;;;;;;10.85;4.43;;;2.10;99.90;;;;;;5073371;28;20586;-47
2024/01/05 06:04:57;;;;;;;10.98;4.88;;;2.20;99.90;;;;;;5073548;28;20147;-47
2024/01/05 06:07:24;;;;;;;12.57;5.05;;;2.20;99.90;;;;;;5073363;28;20132;-46
2024/01/05 06:09:50;;;;;;;8.93;4.50;;;2.20;99.90;;;;;;5073443;28;20486;-49
2024/01/05 06:12:17;;;;;;;10.68;4.95;;;2.20;99.90;;;;;;5073802;28;20295;-47
2024/01/05 06:14:43;;;;;;;11.30;5.85;;;2.30;99.90;;;;;;5073381;28;20044;-47
2024/01/05 06:17:09;;;;;;;13.05;4.93;;;2.20;99.90;;;;;;5073371;28;20067;-46
2024/01/05 06:19:35;;;;;;;13.50;5.07;;;2.20;99.90;;;;;;5073150;28;20045;-47
2024/01/05 06:22:00;;;;;;;10.68;4.70;;;2.20;99.90;;;;;;5073293;28;20056;-47
2024/01/05 06:24:26;;;;;;;11.07;5.40;;;2.20;99.90;;;;;;5074911;28;20053;-46
2024/01/05 06:26:52;;;;;;;10.25;4.72;;;2.20;99.90;;;;;;5077243;28;20128;-47
2024/01/05 06:29:18;;;;;;;10.07;4.60;;;2.20;99.90;;;;;;5077091;28;20472;-51
2024/01/05 06:31:43;;;;;;;8.25;3.75;;;2.20;99.90;;;;;;5077086;28;20135;-49
2024/01/05 06:34:09;;;;;;;11.60;5.30;;;2.20;99.90;;;;;;5077241;28;20094;-47
2024/01/05 06:36:35;;;;;;;11.67;5.27;;;2.20;99.90;;;;;;5076820;28;20055;-47
2024/01/05 06:39:00;;;;;;;11.35;5.15;;;2.20;99.90;;;;;;5076891;28;20036;-47
2024/01/05 06:41:27;;;;;;;9.43;4.28;;;2.20;99.90;;;;;;5076622;28;20466;-49
2024/01/05 06:43:52;;;;;;;13.07;5.03;;;2.20;99.90;;;;;;5075847;28;20518;-47
2024/01/05 06:46:18;;;;;;;11.33;5.03;;;2.20;99.90;;;;;;5075982;28;20076;-48
2024/01/05 06:48:43;;;;;;;12.40;4.63;;;2.30;99.90;;;;;;5076663;28;20098;-48
2024/01/05 06:51:09;;;;;;;11.17;5.10;;;2.30;99.90;;;;;;5076586;28;20048;-49
2024/01/05 06:53:35;;;;;;;11.17;5.17;;;2.30;99.90;;;;;;5076509;28;20444;-47
2024/01/05 06:56:00;;;;;;;10.77;5.43;;;2.30;99.90;;;;;;5076655;28;20040;-46
2024/01/05 06:58:27;;;;;;;11.70;5.00;;;2.30;99.90;;;;;;5077017;28;20054;-47
2024/01/05 07:00:53;;;;;;;11.30;4.95;;;2.30;99.90;;;;;;5075591;28;20098;-47
2024/01/05 07:03:19;;;;;;;12.20;5.00;;;2.30;99.90;;;;;;5076517;28;20040;-47
2024/01/05 07:05:45;;;;;;;11.15;5.10;;;2.30;99.90;;;;;;5076298;28;20090;-48
2024/01/05 07:08:11;;;;;;;11.45;5.03;;;2.30;99.90;;;;;;5074679;28;20384;-48
2024/01/05 07:10:37;;;;;;;12.52;5.15;;;2.30;99.90;;;;;;5076708;28;20081;-48
2024/01/05 07:13:06;;;;;;;10.38;4.38;;;2.40;99.90;;;;;;5075571;28;20044;-47
2024/01/05 07:15:32;;;;;;;9.05;4.45;;;2.40;99.90;;;;;;5076139;28;20510;-50
2024/01/05 07:17:58;;;;;;;10.68;4.32;;;2.30;99.90;;;;;;5076616;28;20049;-48
2024/01/05 07:20:23;;;;;;;11.68;4.60;;;2.40;99.90;;;;;;5076013;28;20105;-51
2024/01/05 07:22:49;;;;;;;11.55;4.63;;;2.40;99.90;;;;;;5075728;28;20049;-47
2024/01/05 07:25:15;;;;;;;10.32;4.85;;;2.40;99.90;;;;;;5075801;28;20050;-49
2024/01/05 07:27:40;;;;;;;9.00;3.70;;;2.40;99.90;;;;;;5074684;28;20205;-48
2024/01/05 07:30:06;;;;;;;7.63;3.93;;;2.40;99.90;;;;;;5075781;28;20051;-47
2024/01/05 07:32:32;;;;;;;9.63;4.82;;;2.40;99.90;;;;;;5075652;28;20048;-49
2024/01/05 07:34:58;;;;;;;11.35;4.80;;;2.50;99.90;;;;;;5075710;28;20044;-47
2024/01/05 07:37:24;;;;;;;10.07;4.43;;;2.50;99.90;;;;;;5075525;28;20040;-47
2024/01/05 07:39:50;;;;;;;10.40;5.13;;;2.50;99.90;;;;;;5076001;28;20123;-47
2024/01/05 07:42:16;;;;;;;13.00;5.67;;;2.50;99.90;;;;;;5075807;28;20044;-48
2024/01/05 07:44:41;;;;;;;13.63;4.75;;;2.50;99.90;;;;;;5075660;28;20534;-47
2024/01/05 07:47:09;;;;;;;11.95;4.78;;;2.50;99.90;;;;;;5075455;28;20054;-48
2024/01/05 07:49:35;;;;;;;10.85;4.78;;;2.60;99.90;;;;;;5075493;28;20109;-47
2024/01/05 07:52:01;;;;;;;12.65;4.57;;;2.50;99.90;;;;;;5075504;28;20037;-48
2024/01/05 07:54:26;;;;;;;11.57;5.03;;;2.50;99.90;;;;;;5075307;28;20113;-46
2024/01/05 07:56:52;;;;;;;10.70;5.28;;;2.60;99.90;;;;;;5075695;28;20089;-46
2024/01/05 07:59:17;;;;;;;11.65;5.22;;;2.50;99.90;;;;;;5075803;28;20098;-47
2024/01/05 08:01:43;;;;;;;10.80;5.38;;;2.60;99.90;;;;;;5074369;28;20492;-46
2024/01/05 08:04:09;;;;;;;10.18;5.32;;;2.60;99.90;;;;;;5075415;28;20373;-47
2024/01/05 08:06:35;;;;;;;10.10;4.78;;;2.50;99.90;;;;;;5075213;28;20142;-46
2024/01/05 08:09:01;;;;;;;9.52;4.82;;;2.60;99.90;;;;;;5075209;28;20545;-46
2024/01/05 08:11:26;;;;;;;10.88;4.80;;;2.60;99.90;;;;;;5075025;28;20527;-46
2024/01/05 08:13:52;;;;;;;10.70;5.03;;;2.60;99.90;;;;;;5075610;28;20090;-47
2024/01/05 08:16:18;;;;;;;10.82;5.63;;;2.50;99.90;;;;;;5075146;28;20044;-46
2024/01/05 08:18:45;;;;;;;12.10;5.73;;;2.60;99.90;;;;;;5074920;28;20452;-46
2024/01/05 08:21:11;;;;;;;10.57;4.85;;;2.60;99.90;;;;;;5074825;28;20102;-46
2024/01/05 08:23:37;;;;;;;14.45;5.85;;;2.70;99.90;;;;;;5074632;28;20061;-46
2024/01/05 08:26:06;;;;;;;14.82;5.95;;;2.70;99.90;;;;;;5074890;28;20046;-46
2024/01/05 08:28:31;;;;;;;16.15;6.15;;;2.60;99.90;;;;;;5074785;28;20036;-46
2024/01/05 08:30:58;;;;;;;13.45;6.85;;;2.60;99.90;;;;;;5074790;28;20040;-46
2024/01/05 08:33:24;;;;;;;11.75;5.88;;;2.60;99.90;;;;;;5073565;28;20126;-46
2024/01/05 08:35:50;;;;;;;14.73;6.30;;;2.60;99.90;;;;;;5074645;28;20052;-46
2024/01/05 08:38:15;;;;;;;12.75;6.38;;;2.60;99.90;;;;;;5074668;28;20044;-46
2024/01/05 08:40:41;;;;;;;14.07;6.35;;;2.70;99.90;;;;;;5074669;28;20036;-46
2024/01/05 08:43:08;;;;;;;14.90;6.10;;;2.70;99.90;;;;;;5074660;28;20083;-46
2024/01/05 08:45:34;;;;;;;12.52;6.30;;;2.70;99.90;;;;;;5074410;28;20109;-46
2024/01/05 08:48:00;;;;;;;13.90;6.30;;;2.70;99.90;;;;;;5073896;28;20127;-46
2024/01/05 08:50:26;;;;;;;13.13;6.07;;;2.70;99.90;;;;;;5074271;28;20109;-46
2024/01/05 08:52:52;;;;;;;12.80;6.57;;;2.70;99.90;;;;;;5074465;28;20052;-47
2024/01/05 08:55:20;;;;;;;12.47;6.03;;;2.70;99.90;;;;;;5074388;28;20079;-46
2024/01/05 08:57:47;;;;;;;15.55;5.70;;;2.80;99.90;;;;;;5074325;28;20041;-47
2024/01/05 09:00:13;;;;;;;13.05;6.50;;;2.80;99.90;;;;;;5074220;28;20071;-48
2024/01/05 09:02:39;;;;;;;12.05;6.40;;;2.80;99.90;;;;;;5074087;28;20123;-46
2024/01/05 09:05:05;;;;;;;13.88;5.85;;;2.80;99.90;;;;;;5074027;28;20124;-46
2024/01/05 09:07:34;;;;;;;12.00;5.63;;;2.80;99.90;;;;;;5072830;28;20083;-47
2024/01/05 09:10:01;;;;;;;13.85;5.72;;;2.80;99.90;;;;;;5074036;28;20063;-46
2024/01/05 09:12:27;;;;;;;11.57;5.35;;;2.80;99.90;;;;;;5074056;28;20415;-46
2024/01/05 09:14:53;;;;;;;11.80;5.90;;;2.90;99.90;;;;;;5073853;28;20044;-46
2024/01/05 09:17:19;;;;;;;13.52;6.07;;;2.90;99.90;;;;;;5073977;28;20446;-46
2024/01/05 09:19:45;;;;;;;12.10;5.80;;;2.90;99.90;;;;;;5073754;28;20040;-46
2024/01/05 09:22:11;;;;;;;11.33;5.47;;;2.90;99.90;;;;;;5074053;28;20500;-46
2024/01/05 09:24:37;;;;;;;12.25;5.00;;;2.90;99.90;;;;;;5073886;28;20048;-46
2024/01/05 09:27:04;;;;;;;11.20;5.60;;;3.00;99.90;;;;;;5073697;28;20048;-46
2024/01/05 09:29:31;;;;;;;11.95;4.82;;;3.00;99.90;;;;;;5073765;28;20279;-47
2024/01/05 09:31:57;;;;;;;11.45;4.95;;;3.00;99.90;;;;;;5073784;28;20048;-46
2024/01/05 09:34:23;;;;;;;10.48;5.35;;;3.00;99.90;;;;;;5073770;28;20093;-46
2024/01/05 09:36:50;;;;;;;11.43;5.60;;;3.00;99.90;;;;;;5074487;28;20472;-47
2024/01/05 09:39:16;;;;;;;;;;;3.00;99.90;;;;;;5074549;28;20037;-47
2024/01/05 09:41:42;;;;;;;11.30;5.93;;;3.00;99.90;;;;;;5073633;28;19920;-46
2024/01/05 09:44:10;;;;;;;12.20;5.60;;;3.10;99.90;;;;;;5073554;28;20040;-46
2024/01/05 09:46:39;;;;;;;11.35;5.05;;;3.10;99.90;;;;;;5073491;28;20086;-46
2024/01/05 09:49:06;;;;;;;13.05;5.40;;;3.10;99.90;;;;;;5073483;28;20059;-46
2024/01/05 09:51:32;;;;;;;9.45;4.32;;;3.10;99.90;;;;;;5073556;28;20472;-46
2024/01/05 09:53:58;;;;;;;11.45;5.15;;;3.10;99.90;;;;;;5073590;28;20048;-46
2024/01/05 09:56:25;;;;;;;11.63;5.00;;;3.10;99.90;;;;;;5073458;28;20377;-46
2024/01/05 09:58:52;;;;;;;10.95;5.22;;;3.10;99.90;;;;;;5074115;28;20036;-46
2024/01/05 10:01:28;;;;;;;10.00;4.90;;;3.20;99.90;;;;;;5077793;28;20048;-46
2024/01/05 10:04:12;;;;;;;9.38;4.68;;;3.20;99.90;;;;;;5077618;28;20811;-46
2024/01/05 10:06:39;;;;;;;11.13;5.40;;;3.20;99.90;;;;;;5076640;28;20048;-46
2024/01/05 10:09:05;;;;;;;;;;;3.20;99.90;;;;;;5077706;28;20064;-47
2024/01/05 10:11:33;;;;;;;10.02;4.72;;;3.20;99.90;;;;;;5077582;28;20011;-47
2024/01/05 10:14:04;;;;;;;12.23;4.90;;;3.20;99.90;;;;;;5077246;28;20098;-49
2024/01/05 10:16:39;;;;;;;9.40;4.30;;;3.20;99.90;;;;;;5077444;28;20083;-48
2024/01/05 10:19:18;;;;;;;10.85;4.90;;;3.30;99.90;;;;;;5076603;28;20570;-46
2024/01/05 10:21:45;;;;;;;11.27;5.38;;;3.30;99.90;;;;;;5077507;28;20052;-49
2024/01/05 10:24:21;;;;;;;11.60;5.57;;;3.30;99.90;;;;;;5077300;28;20076;-46
2024/01/05 10:27:07;;;;;;;12.38;5.18;;;3.40;99.90;;;;;;5076482;28;20476;-50
2024/01/05 10:29:37;;;;;;;16.80;5.38;;;3.40;99.90;;;;;;5077669;28;20435;-49
2024/01/05 10:32:16;;;;;;;10.95;5.20;;;3.40;99.90;;;;;;5075913;28;20055;-49
2024/01/05 10:34:51;;;;;;;13.57;5.15;;;3.50;99.90;;;;;;5077118;28;20037;-49
2024/01/05 10:37:21;;;;;;;11.57;5.88;;;3.50;99.90;;;;;;5077607;28;20462;-48
2024/01/05 10:39:56;;;;;;;12.15;5.28;;;3.50;99.90;;;;;;5076964;28;20044;-46
2024/01/05 10:42:26;;;;;;;12.32;5.50;;;3.60;99.90;;;;;;5076951;28;20048;-50
2024/01/05 10:44:54;;;;;;;10.35;4.47;;;3.60;99.90;;;;;;5076722;28;20496;-46
2024/01/05 10:47:28;;;;;;;9.13;4.20;;;3.60;99.90;;;;;;5076418;28;20403;-47
2024/01/05 10:49:55;;;;;;;11.48;5.50;;;3.70;99.90;;;;;;5076778;28;20055;-46
2024/01/05 10:52:22;;;;;;;10.13;4.80;;;3.70;99.90;;;;;;5076749;28;20102;-46
2024/01/05 10:54:51;;;;;;;10.63;4.97;;;3.70;99.90;;;;;;5076501;28;20569;-46
2024/01/05 10:57:18;;;;;;;11.27;4.82;;;3.70;99.90;;;;;;5076637;28;20055;-47
2024/01/05 10:59:51;;;;;;;11.95;5.60;;;3.70;99.90;;;;;;5076419;28;20052;-46
2024/01/05 11:02:40;;;;;;;8.43;4.03;;;3.70;99.90;;;;;;5076429;28;20048;-46
2024/01/05 11:05:11;;;;;;;10.27;4.53;;;3.70;99.90;;;;;;5076478;28;20084;-47
2024/01/05 11:07:42;;;;;;;11.93;4.80;;;3.80;99.90;;;;;;5076361;28;20430;-46
2024/01/05 11:10:33;;;;;;;10.07;4.55;;;3.80;99.90;;;;;;5074687;28;20412;-47
2024/01/05 11:13:08;;;;;;;12.27;5.05;;;3.80;99.90;;;;;;5076488;28;20052;-46
2024/01/05 11:15:58;;;;;;;11.25;4.43;;;3.80;99.90;;;;;;5075211;28;20040;-46
2024/01/05 11:18:38;;;;;;;10.63;5.53;;;3.80;99.90;;;;;;5076331;28;20040;-46
2024/01/05 11:21:22;;;;;;;10.70;5.15;;;3.80;99.90;;;;;;5076759;28;20086;-46
2024/01/05 11:23:49;;;;;;;11.50;5.35;;;3.80;99.90;;;;;;5076012;28;20549;-47
2024/01/05 11:26:50;;;;;;;11.70;5.28;;;3.80;99.90;;;;;;5075969;28;20101;-47
2024/01/05 11:29:46;;;;;;;10.45;5.03;;;3.80;99.90;;;;;;5053589;28;20055;-46
2024/01/05 11:32:32;;;;;;;12.25;5.22;;;3.80;99.90;;;;;;5075915;28;20561;-46
2024/01/05 11:34:58;;;;;;;11.80;5.15;;;3.80;99.90;;;;;;5071876;28;20052;-46
2024/01/05 11:37:29;;;;;;;12.50;5.43;;;3.80;99.90;;;;;;5058097;28;20048;-47
2024/01/05 11:39:56;;;;;;;11.35;5.47;;;3.90;99.90;;;;;;5075923;28;20395;-47
2024/01/05 11:42:24;;;;;;;11.60;5.75;;;3.90;99.90;;;;;;5075872;28;20060;-46
2024/01/05 11:44:53;;;;;;;11.25;5.32;;;3.90;99.90;;;;;;5075765;28;20056;-46
2024/01/05 11:47:47;;;;;;;10.65;5.00;;;3.90;99.90;;;;;;5074536;28;20040;-47
2024/01/05 11:50:34;;;;;;;12.68;6.25;;;3.90;99.90;;;;;;5074740;28;20060;-46
2024/01/05 11:53:19;;;;;;;12.55;5.75;;;3.90;99.90;;;;;;5075697;28;20499;-46
2024/01/05 11:55:52;;;;;;;14.45;5.88;;;3.90;99.90;;;;;;5074569;28;20502;-46
2024/01/05 11:58:25;;;;;;;12.95;4.97;;;4.00;99.90;;;;;;5075553;28;20047;-46
2024/01/05 12:00:55;;;;;;;9.48;4.28;;;3.90;99.90;;;;;;5075539;28;20057;-47
2024/01/05 12:03:22;;;;;;;11.68;4.97;;;4.00;99.90;;;;;;5075457;28;20049;-47
2024/01/05 12:05:54;;;;;;;12.13;4.40;;;3.90;99.90;;;;;;5075371;28;20145;-47
2024/01/05 12:08:21;;;;;;;10.95;5.05;;;4.00;99.90;;;;;;5075160;28;20037;-47
2024/01/05 12:10:51;;;;;;;;;;;4.00;99.90;;;;;;5075263;28;20069;-47
2024/01/05 12:13:24;;;;;;;10.57;4.75;;;3.90;99.90;;;;;;5074974;28;20360;-47
2024/01/05 12:15:54;;;;;;;8.32;3.90;;;3.90;99.90;;;;;;5074285;28;20044;-46
2024/01/05 12:18:32;;;;;;;10.05;3.75;;;3.90;99.90;;;;;;5075032;28;20177;-46
2024/01/05 12:21:00;;;;;;;8.77;3.88;;;3.90;99.90;;;;;;5074584;28;20083;-47
2024/01/05 12:23:26;;;;;;;7.32;3.38;;;3.90;99.90;;;;;;5074299;28;20047;-47
2024/01/05 12:26:00;;;;;;;9.25;4.22;;;3.90;99.90;;;;;;5074973;28;20183;-46
2024/01/05 12:28:30;;;;;;;7.63;3.45;;;3.90;99.90;;;;;;5074832;28;20124;-46
2024/01/05 12:30:58;;;;;;;9.30;3.72;;;4.00;99.90;;;;;;5074850;28;20127;-46
2024/01/05 12:33:28;;;;;;;8.27;4.03;;;4.00;99.90;;;;;;5074773;28;20496;-46
2024/01/05 12:35:54;;;;;;;7.97;3.67;;;4.00;99.90;;;;;;5074697;28;20123;-46
2024/01/05 12:38:29;;;;;;;6.85;3.17;;;4.00;99.90;;;;;;5073794;28;20491;-46
2024/01/05 12:41:09;;;;;;;9.43;3.78;;;3.90;99.90;;;;;;5074706;28;20055;-46
2024/01/05 12:43:43;;;;;;;9.05;3.60;;;3.90;99.90;;;;;;5074779;28;20060;-46
2024/01/05 12:46:09;;;;;;;8.05;3.78;;;4.00;99.90;;;;;;5074482;28;20495;-47
2024/01/05 12:48:35;;;;;;;8.57;3.78;;;4.00;99.90;;;;;;5074200;28;20044;-46
2024/01/05 12:51:08;;;;;;;8.27;3.90;;;4.00;99.90;;;;;;5074487;28;20047;-46
2024/01/05 12:53:35;;;;;;;8.70;4.05;;;4.00;99.90;;;;;;5074391;28;20223;-46